Time;durP1;ratioP1;P1;durP2;ratioP2;P2;SDS_P1;SDS_P2;PMS_P1;PMS_P2;Temp;Humidity;BMP_temperature;BMP_pressure;BME280_temperature;BME280_humidity;BME280_pressure;Samples;Min_cycle;Max_cycle;Signal;HPM_P1;HPM_P2
2023/11/20 00:02:06;;;;;;;32.05;4.20;;;;;;;;;;5030883;28;20374;-66
2023/11/20 00:04:33;;;;;;;29.77;4.22;;;;;;;;;;5039789;28;20562;-66
2023/11/20 00:06:59;;;;;;;29.92;4.45;;;;;;;;;;5025093;28;20060;-66
2023/11/20 00:09:25;;;;;;;25.10;3.50;;;;;;;;;;5028917;28;20634;-66
2023/11/20 00:11:52;;;;;;;33.67;3.80;;;;;;;;;;5023495;28;20045;-65
2023/11/20 00:14:18;;;;;;;33.13;4.55;;;;;;;;;;5015946;28;20048;-66
2023/11/20 00:16:44;;;;;;;24.45;3.90;;;;;;;;;;5024385;28;20053;-66
2023/11/20 00:19:11;;;;;;;24.52;3.90;;;;;;;;;;5013324;28;20496;-66
2023/11/20 00:21:38;;;;;;;29.67;4.03;;;;;;;;;;5030094;28;20056;-66
2023/11/20 00:24:06;;;;;;;24.73;4.05;;;;;;;;;;5035464;28;20049;-66
2023/11/20 00:26:32;;;;;;;25.38;3.45;;;;;;;;;;5031969;28;20139;-66
2023/11/20 00:28:59;;;;;;;23.17;3.58;;;;;;;;;;5039545;28;20056;-67
2023/11/20 00:31:25;;;;;;;23.60;4.43;;;;;;;;;;5017830;28;20461;-67
2023/11/20 00:33:52;;;;;;;27.75;4.40;;;;;;;;;;5024783;28;20053;-68
2023/11/20 00:36:18;;;;;;;19.85;3.67;;;;;;;;;;5026345;28;20053;-66
2023/11/20 00:38:45;;;;;;;25.15;5.13;;;;;;;;;;5024783;28;20057;-67
2023/11/20 00:41:11;;;;;;;19.75;3.67;;;;;;;;;;5007781;28;20059;-66
2023/11/20 00:43:39;;;;;;;23.38;3.88;;;;;;;;;;5015044;28;20045;-65
2023/11/20 00:46:06;;;;;;;24.50;4.53;;;;;;;;;;5041614;28;20136;-66
2023/11/20 00:48:32;;;;;;;19.20;3.80;;;;;;;;;;5035046;28;20424;-65
2023/11/20 00:50:59;;;;;;;18.58;4.00;;;;;;;;;;5026960;28;20445;-67
2023/11/20 00:53:25;;;;;;;17.08;3.38;;;;;;;;;;5040443;28;20077;-66
2023/11/20 00:55:51;;;;;;;14.88;3.05;;;;;;;;;;5035065;28;20045;-65
2023/11/20 00:58:18;;;;;;;20.88;3.75;;;;;;;;;;5032982;28;20053;-65
2023/11/20 01:00:44;;;;;;;19.05;4.00;;;;;;;;;;5037580;28;20126;-66
2023/11/20 01:03:10;;;;;;;17.75;4.35;;;;;;;;;;5031860;28;20545;-66
2023/11/20 01:05:37;;;;;;;18.70;3.45;;;;;;;;;;5026309;28;20477;-67
2023/11/20 01:08:04;;;;;;;20.40;4.45;;;;;;;;;;5042539;28;20077;-66
2023/11/20 01:10:30;;;;;;;17.70;3.58;;;;;;;;;;5044788;28;20500;-66
2023/11/20 01:12:56;;;;;;;18.95;4.13;;;;;;;;;;5037844;28;20642;-67
2023/11/20 01:15:23;;;;;;;14.45;2.97;;;;;;;;;;5035153;28;20103;-66
2023/11/20 01:17:49;;;;;;;16.52;3.30;;;;;;;;;;5033219;28;20065;-67
2023/11/20 01:20:16;;;;;;;18.25;3.75;;;;;;;;;;5043977;28;20072;-66
2023/11/20 01:22:42;;;;;;;17.23;3.45;;;;;;;;;;5039136;28;20528;-67
2023/11/20 01:25:08;;;;;;;27.20;3.90;;;;;;;;;;5025986;28;20049;-67
2023/11/20 01:27:35;;;;;;;15.50;3.50;;;;;;;;;;5021499;28;20140;-66
2023/11/20 01:30:01;;;;;;;17.13;4.00;;;;;;;;;;5025502;28;20560;-67
2023/11/20 01:32:28;;;;;;;21.75;4.80;;;;;;;;;;5027349;28;20098;-66
2023/11/20 01:34:54;;;;;;;20.73;3.92;;;;;;;;;;5033988;28;20049;-67
2023/11/20 01:37:20;;;;;;;22.38;3.80;;;;;;;;;;5032123;28;20121;-66
2023/11/20 01:39:47;;;;;;;20.83;4.28;;;;;;;;;;5040023;28;20045;-66
2023/11/20 01:42:13;;;;;;;17.98;4.10;;;;;;;;;;5039674;28;20045;-67
2023/11/20 01:44:40;;;;;;;18.50;3.70;;;;;;;;;;5042931;28;20858;-66
2023/11/20 01:47:06;;;;;;;23.13;4.50;;;;;;;;;;5035029;28;20045;-66
2023/11/20 01:49:33;;;;;;;24.10;4.22;;;;;;;;;;5045139;28;20171;-66
2023/11/20 01:52:00;;;;;;;28.73;4.05;;;;;;;;;;5037087;28;20102;-67
2023/11/20 01:54:27;;;;;;;27.73;3.83;;;;;;;;;;5026993;28;20073;-66
2023/11/20 01:56:53;;;;;;;25.48;3.88;;;;;;;;;;5020791;28;20080;-66
2023/11/20 01:59:20;;;;;;;26.98;4.00;;;;;;;;;;5016321;28;20143;-67
2023/11/20 02:01:46;;;;;;;15.30;3.35;;;;;;;;;;5027905;28;20095;-67
2023/11/20 02:04:13;;;;;;;29.60;4.85;;;;;;;;;;5032536;28;20050;-66
2023/11/20 02:06:40;;;;;;;22.33;3.15;;;;;;;;;;5037743;28;20135;-66
2023/11/20 02:09:07;;;;;;;22.35;2.80;;;;;;;;;;5021120;28;20052;-66
2023/11/20 02:11:33;;;;;;;14.63;2.72;;;;;;;;;;5035920;28;20049;-66
2023/11/20 02:14:00;;;;;;;17.40;2.22;;;;;;;;;;5028442;28;20053;-66
2023/11/20 02:16:26;;;;;;;22.85;3.05;;;;;;;;;;5028129;28;20410;-66
2023/11/20 02:18:52;;;;;;;21.30;2.40;;;;;;;;;;5035314;28;20056;-66
2023/11/20 02:21:19;;;;;;;15.43;2.17;;;;;;;;;;5038144;28;20116;-67
2023/11/20 02:23:45;;;;;;;24.38;3.30;;;;;;;;;;5034796;28;20057;-67
2023/11/20 02:26:23;;;;;;;18.15;2.60;;;;;;;;;;5037671;28;20131;-68
2023/11/20 02:29:09;;;;;;;19.83;2.25;;;;;;;;;;5030389;28;20083;-66
2023/11/20 02:31:36;;;;;;;16.83;2.17;;;;;;;;;;5030518;28;20092;-66
2023/11/20 02:34:02;;;;;;;17.02;2.42;;;;;;;;;;5031394;28;20052;-67
2023/11/20 02:36:29;;;;;;;14.18;2.78;;;;;;;;;;5039658;28;20496;-67
2023/11/20 02:38:56;;;;;;;18.63;2.88;;;;;;;;;;5023887;28;20049;-67
2023/11/20 02:41:22;;;;;;;20.23;2.65;;;;;;;;;;5034604;28;20064;-66
2023/11/20 02:43:49;;;;;;;12.35;2.70;;;;;;;;;;5035488;28;20546;-66
2023/11/20 02:46:15;;;;;;;17.55;3.42;;;;;;;;;;5027865;28;20060;-66
2023/11/20 02:48:42;;;;;;;13.80;2.90;;;;;;;;;;5015384;28;20517;-67
2023/11/20 02:51:09;;;;;;;11.43;1.70;;;;;;;;;;5034324;28;20398;-66
2023/11/20 02:53:35;;;;;;;15.20;2.05;;;;;;;;;;5046286;28;20056;-67
2023/11/20 02:56:02;;;;;;;21.52;2.72;;;;;;;;;;5032295;28;20484;-67
2023/11/20 02:58:28;;;;;;;13.05;1.80;;;;;;;;;;5042665;28;20048;-67
2023/11/20 03:00:54;;;;;;;19.73;2.90;;;;;;;;;;5039528;28;20057;-66
2023/11/20 03:03:21;;;;;;;15.68;2.33;;;;;;;;;;5028757;28;20478;-66
2023/11/20 03:05:47;;;;;;;15.23;2.35;;;;;;;;;;5027378;28;20060;-66
2023/11/20 03:08:13;;;;;;;15.20;2.10;;;;;;;;;;5002140;28;20057;-67
2023/11/20 03:10:40;;;;;;;19.92;4.20;;;;;;;;;;5040193;28;20051;-67
2023/11/20 03:13:06;;;;;;;19.17;2.88;;;;;;;;;;5036500;28;20539;-66
2023/11/20 03:15:33;;;;;;;18.70;3.00;;;;;;;;;;5036325;28;20099;-67
2023/11/20 03:18:00;;;;;;;17.75;2.78;;;;;;;;;;5038408;28;20056;-66
2023/11/20 03:20:26;;;;;;;14.68;3.15;;;;;;;;;;5030942;28;20489;-67
2023/11/20 03:22:53;;;;;;;24.55;3.22;;;;;;;;;;5031384;28;20119;-67
2023/11/20 03:25:19;;;;;;;20.55;3.28;;;;;;;;;;5035534;28;20059;-68
2023/11/20 03:27:46;;;;;;;24.33;4.03;;;;;;;;;;5043739;28;20051;-68
2023/11/20 03:30:13;;;;;;;25.25;3.58;;;;;;;;;;5010486;28;20061;-67
2023/11/20 03:32:39;;;;;;;25.23;3.03;;;;;;;;;;5038141;28;20552;-68
2023/11/20 03:35:06;;;;;;;28.45;3.92;;;;;;;;;;5037920;28;20085;-67
2023/11/20 03:37:32;;;;;;;26.45;4.07;;;;;;;;;;5019110;28;20513;-68
2023/11/20 03:39:59;;;;;;;26.55;3.95;;;;;;;;;;5022230;28;20049;-67
2023/11/20 03:42:25;;;;;;;24.75;3.67;;;;;;;;;;5033505;28;20048;-68
2023/11/20 03:44:52;;;;;;;19.58;3.60;;;;;;;;;;5023591;28;20049;-68
2023/11/20 03:47:18;;;;;;;18.73;3.33;;;;;;;;;;5032184;28;20683;-68
2023/11/20 03:49:45;;;;;;;17.85;2.70;;;;;;;;;;5028975;28;20049;-67
2023/11/20 03:52:11;;;;;;;22.25;2.53;;;;;;;;;;5028791;28;20693;-68
2023/11/20 03:54:38;;;;;;;24.58;3.00;;;;;;;;;;5028275;28;20086;-67
2023/11/20 03:57:04;;;;;;;24.80;3.08;;;;;;;;;;5041177;28;20057;-68
2023/11/20 03:59:30;;;;;;;22.10;3.28;;;;;;;;;;5035727;28;20045;-68
2023/11/20 04:01:57;;;;;;;19.55;2.95;;;;;;;;;;5042990;28;20738;-68
2023/11/20 04:04:23;;;;;;;17.92;2.63;;;;;;;;;;5041433;28;20127;-67
2023/11/20 04:06:50;;;;;;;17.25;2.40;;;;;;;;;;5016337;28;20092;-68
2023/11/20 04:09:16;;;;;;;19.25;2.70;;;;;;;;;;5032797;28;20687;-68
2023/11/20 04:11:42;;;;;;;15.77;2.42;;;;;;;;;;5034431;28;20044;-68
2023/11/20 04:14:09;;;;;;;22.20;2.75;;;;;;;;;;5045144;28;20171;-68
2023/11/20 04:16:36;;;;;;;23.45;3.03;;;;;;;;;;5023476;28;20045;-68
2023/11/20 04:19:03;;;;;;;24.83;2.97;;;;;;;;;;5037664;28;20052;-69
2023/11/20 04:21:31;;;;;;;13.02;2.30;;;;;;;;;;5019007;28;20052;-68
2023/11/20 04:23:58;;;;;;;18.35;2.53;;;;;;;;;;5037882;28;20077;-67
2023/11/20 04:26:25;;;;;;;22.63;3.05;;;;;;;;;;5044720;28;20057;-68
2023/11/20 04:28:51;;;;;;;12.45;2.47;;;;;;;;;;5028808;28;20168;-68
2023/11/20 04:31:17;;;;;;;16.05;2.90;;;;;;;;;;5037909;28;20083;-68
2023/11/20 04:33:44;;;;;;;16.00;2.38;;;;;;;;;;5036725;28;20043;-68
2023/11/20 04:36:11;;;;;;;21.48;3.47;;;;;;;;;;5024702;28;20052;-68
2023/11/20 04:38:37;;;;;;;17.58;2.80;;;;;;;;;;5043132;28;20099;-68
2023/11/20 04:41:07;;;;;;;15.52;2.30;;;;;;;;;;5033273;28;20106;-67
2023/11/20 04:43:34;;;;;;;16.88;2.70;;;;;;;;;;5036239;28;20132;-67
2023/11/20 04:46:01;;;;;;;22.20;3.58;;;;;;;;;;5027891;28;20091;-67
2023/11/20 04:48:27;;;;;;;17.17;2.60;;;;;;;;;;5027192;28;20049;-68
2023/11/20 04:50:53;;;;;;;17.70;3.30;;;;;;;;;;5042470;28;20061;-69
2023/11/20 04:53:21;;;;;;;21.90;3.00;;;;;;;;;;5025498;28;20056;-68
2023/11/20 04:55:48;;;;;;;17.15;2.40;;;;;;;;;;5010782;28;20151;-68
2023/11/20 04:58:14;;;;;;;13.77;2.20;;;;;;;;;;5020727;28;20132;-68
2023/11/20 05:00:40;;;;;;;14.50;2.42;;;;;;;;;;5016934;28;20342;-67
2023/11/20 05:03:08;;;;;;;20.55;2.85;;;;;;;;;;5022588;28;20684;-68
2023/11/20 05:05:35;;;;;;;22.88;2.80;;;;;;;;;;5026404;28;20135;-68
2023/11/20 05:08:01;;;;;;;22.17;2.35;;;;;;;;;;5033118;28;20095;-69
2023/11/20 05:10:28;;;;;;;16.30;2.28;;;;;;;;;;5027633;28;20048;-67
2023/11/20 05:12:54;;;;;;;16.10;2.50;;;;;;;;;;5018902;28;20132;-67
2023/11/20 05:15:21;;;;;;;16.83;3.45;;;;;;;;;;5031212;28;20063;-67
2023/11/20 05:17:47;;;;;;;19.67;2.70;;;;;;;;;;5024346;28;20061;-68
2023/11/20 05:20:13;;;;;;;23.52;2.83;;;;;;;;;;5028113;28;20045;-69
2023/11/20 05:22:40;;;;;;;18.77;2.92;;;;;;;;;;5032257;28;20049;-68
2023/11/20 05:25:07;;;;;;;22.08;2.67;;;;;;;;;;5035497;28;20727;-68
2023/11/20 05:27:33;;;;;;;18.02;2.72;;;;;;;;;;5027040;28;20044;-67
2023/11/20 05:30:00;;;;;;;14.63;2.42;;;;;;;;;;5041493;28;20052;-67
2023/11/20 05:32:26;;;;;;;18.83;2.58;;;;;;;;;;5020503;28;20233;-68
2023/11/20 05:34:53;;;;;;;15.23;2.47;;;;;;;;;;5033447;28;20064;-68
2023/11/20 05:37:20;;;;;;;11.70;2.28;;;;;;;;;;5045092;28;20045;-67
2023/11/20 05:39:46;;;;;;;21.48;3.97;;;;;;;;;;5039301;28;20160;-68
2023/11/20 05:42:13;;;;;;;24.48;3.40;;;;;;;;;;5045625;28;20052;-67
2023/11/20 05:44:39;;;;;;;24.05;3.00;;;;;;;;;;5036388;28;20055;-67
2023/11/20 05:47:06;;;;;;;18.70;2.97;;;;;;;;;;5042543;28;20040;-68
2023/11/20 05:49:32;;;;;;;14.75;2.40;;;;;;;;;;5041092;28;20045;-68
2023/11/20 05:51:59;;;;;;;19.45;2.15;;;;;;;;;;5039938;28;20041;-67
2023/11/20 05:54:25;;;;;;;23.00;3.40;;;;;;;;;;5022203;28;20107;-67
2023/11/20 05:56:51;;;;;;;21.92;3.50;;;;;;;;;;5022693;28;20505;-68
2023/11/20 05:59:18;;;;;;;15.60;2.45;;;;;;;;;;5031381;28;20052;-68
2023/11/20 06:01:44;;;;;;;13.73;1.95;;;;;;;;;;5031442;28;20464;-67
2023/11/20 06:04:10;;;;;;;18.70;3.20;;;;;;;;;;5025771;28;20049;-68
2023/11/20 06:06:38;;;;;;;20.25;2.60;;;;;;;;;;5021930;28;20057;-68
2023/11/20 06:09:05;;;;;;;19.00;2.75;;;;;;;;;;5044971;28;20433;-69
2023/11/20 06:11:32;;;;;;;18.77;2.70;;;;;;;;;;5037079;28;20045;-68
2023/11/20 06:14:01;;;;;;;15.27;2.40;;;;;;;;;;5033576;28;20297;-68
2023/11/20 06:16:27;;;;;;;22.02;2.78;;;;;;;;;;5025712;28;20084;-68
2023/11/20 06:18:54;;;;;;;19.83;3.25;;;;;;;;;;5032413;28;20045;-68
2023/11/20 06:21:21;;;;;;;23.45;3.40;;;;;;;;;;5039942;28;20095;-68
2023/11/20 06:23:47;;;;;;;14.45;2.47;;;;;;;;;;5044883;28;20239;-68
2023/11/20 06:26:14;;;;;;;19.58;3.00;;;;;;;;;;5027104;28;20049;-68
2023/11/20 06:28:41;;;;;;;16.25;3.22;;;;;;;;;;5034116;28;20064;-67
2023/11/20 06:31:09;;;;;;;18.20;2.85;;;;;;;;;;5027799;28;20053;-68
2023/11/20 06:33:35;;;;;;;12.13;2.27;;;;;;;;;;5042370;28;20053;-68
2023/11/20 06:36:02;;;;;;;18.83;2.50;;;;;;;;;;5038676;28;20537;-68
2023/11/20 06:38:29;;;;;;;22.67;3.00;;;;;;;;;;5028648;28;20091;-68
2023/11/20 06:40:58;;;;;;;17.23;2.45;;;;;;;;;;5021956;28;20123;-68
2023/11/20 06:43:25;;;;;;;16.02;2.55;;;;;;;;;;5026273;28;20133;-67
2023/11/20 06:45:51;;;;;;;16.45;2.38;;;;;;;;;;5027860;28;20048;-68
2023/11/20 06:48:17;;;;;;;15.60;2.38;;;;;;;;;;5032276;28;20041;-68
2023/11/20 06:50:44;;;;;;;22.67;3.53;;;;;;;;;;5026788;28;20056;-68
2023/11/20 06:53:10;;;;;;;22.08;3.28;;;;;;;;;;5030778;28;20045;-68
2023/11/20 06:55:37;;;;;;;17.05;3.17;;;;;;;;;;5027520;28;20049;-68
2023/11/20 06:58:04;;;;;;;18.27;3.10;;;;;;;;;;5037885;28;20557;-67
2023/11/20 07:00:30;;;;;;;21.15;2.70;;;;;;;;;;5035095;28;20048;-68
2023/11/20 07:02:57;;;;;;;21.58;3.45;;;;;;;;;;5037111;28;20136;-68
2023/11/20 07:05:23;;;;;;;20.63;2.88;;;;;;;;;;5036188;28;20057;-68
2023/11/20 07:07:53;;;;;;;14.55;3.03;;;;;;;;;;5025167;28;20077;-68
2023/11/20 07:10:23;;;;;;;21.00;3.40;;;;;;;;;;5036747;28;20049;-69
2023/11/20 07:12:52;;;;;;;19.85;2.67;;;;;;;;;;5021513;28;20049;-68
2023/11/20 07:15:19;;;;;;;24.80;3.17;;;;;;;;;;5034616;28;20056;-67
2023/11/20 07:17:46;;;;;;;22.88;3.58;;;;;;;;;;5010194;28;20088;-68
2023/11/20 07:20:13;;;;;;;18.05;3.42;;;;;;;;;;5035805;28;20054;-68
2023/11/20 07:22:39;;;;;;;26.23;3.00;;;;;;;;;;5031751;28;20045;-69
2023/11/20 07:25:06;;;;;;;24.83;3.95;;;;;;;;;;5019186;28;20044;-68
2023/11/20 07:27:32;;;;;;;20.15;3.70;;;;;;;;;;5023975;28;20114;-68
2023/11/20 07:29:59;;;;;;;20.42;2.67;;;;;;;;;;5019632;28;20049;-67
2023/11/20 07:32:25;;;;;;;17.67;3.08;;;;;;;;;;5033326;28;20060;-66
2023/11/20 07:34:51;;;;;;;24.00;3.88;;;;;;;;;;5024455;28;20045;-68
2023/11/20 07:37:18;;;;;;;20.88;3.03;;;;;;;;;;5031365;28;20111;-67
2023/11/20 07:39:45;;;;;;;26.25;3.38;;;;;;;;;;5036611;28;20120;-68
2023/11/20 07:42:11;;;;;;;27.30;4.03;;;;;;;;;;5034200;28;20049;-68
2023/11/20 07:44:38;;;;;;;21.60;3.55;;;;;;;;;;5048783;28;20723;-67
2023/11/20 07:47:04;;;;;;;26.42;3.30;;;;;;;;;;5024579;28;20056;-68
2023/11/20 07:49:31;;;;;;;22.35;3.35;;;;;;;;;;5040929;28;20549;-66
2023/11/20 07:51:58;;;;;;;25.67;3.83;;;;;;;;;;5025868;28;20690;-67
2023/11/20 07:54:25;;;;;;;22.52;3.30;;;;;;;;;;5040925;28;20044;-66
2023/11/20 07:56:52;;;;;;;22.87;3.20;;;;;;;;;;5033520;28;20045;-67
2023/11/20 07:59:19;;;;;;;25.45;3.65;;;;;;;;;;5027670;28;20282;-67
2023/11/20 08:01:45;;;;;;;21.33;2.97;;;;;;;;;;5030300;28;20061;-67
2023/11/20 08:04:15;;;;;;;25.25;4.07;;;;;;;;;;5038142;28;20049;-66
2023/11/20 08:06:42;;;;;;;26.63;3.45;;;;;;;;;;5037056;28;20054;-68
2023/11/20 08:09:09;;;;;;;24.83;2.88;;;;;;;;;;5027167;28;20110;-67
2023/11/20 08:11:36;;;;;;;25.05;3.72;;;;;;;;;;5039024;28;20108;-67
2023/11/20 08:14:03;;;;;;;25.38;3.05;;;;;;;;;;5023261;28;20052;-67
2023/11/20 08:16:29;;;;;;;19.25;2.97;;;;;;;;;;5041600;28;20049;-67
2023/11/20 08:18:57;;;;;;;21.52;4.13;;;;;;;;;;5038442;28;20513;-67
2023/11/20 08:21:24;;;;;;;;;;;;;;;;;;5027527;28;20068;-68
2023/11/20 08:23:50;;;;;;;18.65;3.13;;;;;;;;;;5029214;28;19925;-67
2023/11/20 08:26:17;;;;;;;22.65;3.13;;;;;;;;;;5035287;28;20140;-67
2023/11/20 08:28:44;;;;;;;28.92;2.92;;;;;;;;;;5044943;28;20091;-67
2023/11/20 08:31:10;;;;;;;21.15;2.85;;;;;;;;;;5047383;28;20390;-68
2023/11/20 08:33:36;;;;;;;22.30;3.63;;;;;;;;;;5037912;28;20048;-68
2023/11/20 08:36:03;;;;;;;27.45;4.97;;;;;;;;;;5044162;28;20132;-66
2023/11/20 08:38:29;;;;;;;18.33;2.55;;;;;;;;;;5027574;28;20045;-67
2023/11/20 08:40:57;;;;;;;25.42;3.65;;;;;;;;;;5038121;28;20117;-68
2023/11/20 08:43:24;;;;;;;25.23;3.55;;;;;;;;;;5028546;28;20220;-68
2023/11/20 08:45:50;;;;;;;26.52;3.58;;;;;;;;;;5023958;28;20050;-68
2023/11/20 08:48:31;;;;;;;24.38;4.65;;;;;;;;;;5025096;28;20049;-67
2023/11/20 08:50:57;;;;;;;24.20;3.70;;;;;;;;;;5031746;28;20459;-68
2023/11/20 08:53:24;;;;;;;18.38;3.78;;;;;;;;;;5011948;28;20132;-68
2023/11/20 08:55:50;;;;;;;22.58;3.20;;;;;;;;;;5033885;28;20057;-68
2023/11/20 08:58:16;;;;;;;24.75;4.10;;;;;;;;;;5032988;28;20167;-68
2023/11/20 09:00:43;;;;;;;28.25;4.50;;;;;;;;;;5018042;28;20042;-68
2023/11/20 09:03:11;;;;;;;29.02;4.15;;;;;;;;;;5036087;28;20402;-68
2023/11/20 09:05:37;;;;;;;21.63;3.85;;;;;;;;;;5043919;28;20041;-68
2023/11/20 09:08:04;;;;;;;32.13;4.15;;;;;;;;;;5040722;28;20164;-68
2023/11/20 09:10:30;;;;;;;21.95;3.65;;;;;;;;;;5045959;28;20072;-68
2023/11/20 09:12:57;;;;;;;26.38;3.47;;;;;;;;;;5027174;28;20049;-68
2023/11/20 09:15:24;;;;;;;23.70;3.58;;;;;;;;;;5031053;28;20497;-67
2023/11/20 09:17:51;;;;;;;25.88;3.40;;;;;;;;;;5041046;28;20052;-68
2023/11/20 09:20:20;;;;;;;23.73;3.13;;;;;;;;;;5019991;28;20132;-67
2023/11/20 09:22:47;;;;;;;25.45;3.78;;;;;;;;;;5027358;28;20498;-68
2023/11/20 09:25:13;;;;;;;20.83;3.25;;;;;;;;;;5034431;28;20923;-67
2023/11/20 09:27:41;;;;;;;35.60;4.57;;;;;;;;;;5027439;28;20706;-67
2023/11/20 09:30:09;;;;;;;15.27;3.17;;;;;;;;;;5026270;28;20057;-68
2023/11/20 09:32:36;;;;;;;19.80;3.35;;;;;;;;;;5037554;28;20049;-69
2023/11/20 09:35:02;;;;;;;18.13;2.92;;;;;;;;;;5033618;28;20046;-68
2023/11/20 09:37:31;;;;;;;24.58;3.95;;;;;;;;;;5029420;28;20783;-68
2023/11/20 09:39:58;;;;;;;17.65;3.08;;;;;;;;;;5031789;28;20058;-68
2023/11/20 09:42:25;;;;;;;23.40;4.50;;;;;;;;;;5037371;28;20076;-68
2023/11/20 09:44:53;;;;;;;19.58;3.70;;;;;;;;;;5032926;28;20044;-68
2023/11/20 09:47:20;;;;;;;22.70;3.88;;;;;;;;;;5035552;28;20504;-68
2023/11/20 09:49:47;;;;;;;22.23;3.83;;;;;;;;;;5021086;28;20041;-67
2023/11/20 09:52:14;;;;;;;20.02;4.57;;;;;;;;;;5047058;28;20711;-67
2023/11/20 09:54:42;;;;;;;25.33;5.10;;;;;;;;;;5037207;28;20505;-67
2023/11/20 09:57:09;;;;;;;18.65;3.63;;;;;;;;;;5037973;28;20049;-67
2023/11/20 09:59:36;;;;;;;27.30;5.07;;;;;;;;;;5011575;28;20072;-68
2023/11/20 10:02:03;;;;;;;28.55;4.47;;;;;;;;;;5040194;28;20081;-68
2023/11/20 10:04:29;;;;;;;33.30;5.57;;;;;;;;;;5036943;28;20084;-67
2023/11/20 10:06:56;;;;;;;31.70;4.75;;;;;;;;;;5038031;28;20052;-67
2023/11/20 10:09:22;;;;;;;21.17;4.57;;;;;;;;;;5034091;28;20060;-67
2023/11/20 10:11:52;;;;;;;24.40;4.68;;;;;;;;;;5026132;28;20104;-68
2023/11/20 10:14:19;;;;;;;22.50;4.93;;;;;;;;;;5011919;28;20450;-67
2023/11/20 10:16:46;;;;;;;21.75;4.93;;;;;;;;;;5021629;28;20045;-69
2023/11/20 10:19:14;;;;;;;25.42;5.05;;;;;;;;;;5034530;28;20052;-67
2023/11/20 10:21:41;;;;;;;19.88;5.60;;;;;;;;;;5046061;28;20068;-67
2023/11/20 10:24:11;;;;;;;22.77;4.85;;;;;;;;;;5005318;28;20124;-67
2023/11/20 10:26:44;;;;;;;22.00;5.07;;;;;;;;;;5040912;28;20489;-67
2023/11/20 10:29:10;;;;;;;25.13;5.50;;;;;;;;;;5033036;28;20103;-67
2023/11/20 10:31:42;;;;;;;20.98;4.80;;;;;;;;;;5032605;28;20060;-67
2023/11/20 10:34:09;;;;;;;28.17;5.47;;;;;;;;;;5030339;28;20045;-67
2023/11/20 10:36:37;;;;;;;27.87;5.40;;;;;;;;;;5043823;28;20073;-68
2023/11/20 10:39:03;;;;;;;20.52;4.95;;;;;;;;;;5040067;28;20159;-67
2023/11/20 10:41:30;;;;;;;23.23;5.80;;;;;;;;;;5038321;28;20240;-67
2023/11/20 10:43:58;;;;;;;14.88;4.57;;;;;;;;;;5030488;28;20049;-67
2023/11/20 10:46:25;;;;;;;;;;;;;;;;;;5015481;28;20092;-67
2023/11/20 10:48:52;;;;;;;18.70;4.75;;;;;;;;;;5024988;28;20039;-67
2023/11/20 10:51:19;;;;;;;23.50;5.25;;;;;;;;;;5020468;28;20622;-68
2023/11/20 10:53:53;;;;;;;26.13;6.80;;;;;;;;;;5037582;28;20041;-66
2023/11/20 10:56:20;;;;;;;21.13;5.82;;;;;;;;;;5039625;28;20060;-67
2023/11/20 10:58:47;;;;;;;20.73;5.47;;;;;;;;;;5034795;28;20084;-67
2023/11/20 11:01:16;;;;;;;21.45;5.38;;;;;;;;;;5032676;28;20084;-67
2023/11/20 11:03:42;;;;;;;16.83;5.20;;;;;;;;;;5036196;28;20063;-67
2023/11/20 11:06:10;;;;;;;23.80;6.43;;;;;;;;;;5034077;28;20059;-67
2023/11/20 11:08:38;;;;;;;;;;;;;;;;;;5031925;28;20079;-68
2023/11/20 11:11:04;;;;;;;22.55;5.28;;;;;;;;;;5026812;28;20979;-69
2023/11/20 11:13:33;;;;;;;22.98;6.05;;;;;;;;;;5033061;28;20087;-68
2023/11/20 11:16:00;;;;;;;20.90;5.72;;;;;;;;;;5033417;28;20060;-68
2023/11/20 11:18:30;;;;;;;16.42;5.50;;;;;;;;;;5044623;28;20659;-67
2023/11/20 11:20:58;;;;;;;15.30;5.68;;;;;;;;;;5022096;28;20063;-68
2023/11/20 11:24:00;;;;;;;19.25;6.35;;;;;;;;;;5021931;28;20539;-68
2023/11/20 11:26:45;;;;;;;22.85;5.72;;;;;;;;;;4928820;28;20059;-67
2023/11/20 11:29:14;;;;;;;19.15;5.40;;;;;;;;;;4960359;28;20593;-67
2023/11/20 11:31:46;;;;;;;16.25;5.35;;;;;;;;;;4964063;28;20058;-68
2023/11/20 11:34:35;;;;;;;21.67;5.00;;;;;;;;;;4940279;28;20043;-67
2023/11/20 11:37:01;;;;;;;23.65;5.05;;;;;;;;;;4961108;28;20055;-68
2023/11/20 11:39:30;;;;;;;19.60;4.90;;;;;;;;;;4958405;28;20057;-67
2023/11/20 11:42:05;;;;;;;18.25;5.53;;;;;;;;;;4959946;28;20054;-67
2023/11/20 11:44:46;;;;;;;19.30;5.30;;;;;;;;;;4953134;28;20100;-67
2023/11/20 11:47:14;;;;;;;18.27;5.55;;;;;;;;;;4952618;28;20053;-67
2023/11/20 11:49:46;;;;;;;17.23;4.95;;;;;;;;;;4942937;28;20055;-68
2023/11/20 11:52:12;;;;;;;19.83;5.03;;;;;;;;;;4963975;28;20520;-68
2023/11/20 11:54:39;;;;;;;15.70;4.53;;;;;;;;;;4959287;28;20054;-68
2023/11/20 11:57:08;;;;;;;18.15;4.90;;;;;;;;;;4954960;28;20054;-67
2023/11/20 11:59:39;;;;;;;18.58;4.63;;;;;;;;;;4969990;28;20047;-67
2023/11/20 12:02:07;;;;;;;17.63;4.43;;;;;;;;;;5027871;28;20477;-67
2023/11/20 12:04:48;;;;;;;16.95;4.57;;;;;;;;;;5044588;28;20106;-67
2023/11/20 12:07:16;;;;;;;19.20;4.45;;;;;;;;;;5026373;28;20072;-68
2023/11/20 12:09:55;;;;;;;14.07;3.97;;;;;;;;;;5040332;28;20048;-68
2023/11/20 12:12:43;;;;;;;18.38;3.97;;;;;;;;;;5027363;28;20444;-68
2023/11/20 12:15:29;;;;;;;18.70;4.68;;;;;;;;;;5026287;28;20073;-67
2023/11/20 12:17:58;;;;;;;17.58;3.92;;;;;;;;;;5037071;28;20155;-68
2023/11/20 12:20:25;;;;;;;14.85;3.60;;;;;;;;;;5023653;28;20835;-67
2023/11/20 12:22:52;;;;;;;14.77;3.90;;;;;;;;;;5044486;28;20167;-67
2023/11/20 12:25:18;;;;;;;17.40;3.30;;;;;;;;;;5023582;28;20085;-68
2023/11/20 12:27:44;;;;;;;14.23;3.58;;;;;;;;;;5036047;28;20045;-68
2023/11/20 12:30:11;;;;;;;19.38;3.47;;;;;;;;;;5041384;28;20135;-68
2023/11/20 12:32:38;;;;;;;10.23;2.88;;;;;;;;;;5040304;28;20045;-68
2023/11/20 12:35:05;;;;;;;16.80;3.15;;;;;;;;;;5042273;28;20056;-67
2023/11/20 12:37:32;;;;;;;14.77;2.85;;;;;;;;;;5019255;28;20071;-67
2023/11/20 12:39:59;;;;;;;15.73;2.58;;;;;;;;;;5038678;28;20057;-66
2023/11/20 12:42:25;;;;;;;16.70;2.33;;;;;;;;;;5033564;28;20078;-67
2023/11/20 12:44:53;;;;;;;9.38;2.05;;;;;;;;;;5030614;28;20117;-67
2023/11/20 12:47:20;;;;;;;17.92;2.40;;;;;;;;;;5029608;28;20049;-67
2023/11/20 12:49:50;;;;;;;11.10;2.10;;;;;;;;;;5023270;28;20115;-67
2023/11/20 12:52:16;;;;;;;12.63;2.53;;;;;;;;;;5033553;28;20700;-67
2023/11/20 12:54:42;;;;;;;12.60;2.83;;;;;;;;;;5031146;28;20508;-67
2023/11/20 12:57:09;;;;;;;20.30;3.30;;;;;;;;;;5038715;28;20045;-67
2023/11/20 12:59:36;;;;;;;16.50;3.20;;;;;;;;;;5025068;28;20053;-67
2023/11/20 13:02:07;;;;;;;12.13;2.33;;;;;;;;;;5041944;28;20048;-68
2023/11/20 13:04:34;;;;;;;11.48;2.40;;;;;;;;;;5038631;28;20059;-67
2023/11/20 13:07:02;;;;;;;9.97;2.17;;;;;;;;;;5018823;28;20053;-67
2023/11/20 13:09:30;;;;;;;22.15;3.50;;;;;;;;;;5033803;28;20057;-67
2023/11/20 13:11:57;;;;;;;13.32;2.17;;;;;;;;;;5030425;28;20045;-67
2023/11/20 13:14:24;;;;;;;18.83;3.00;;;;;;;;;;5031797;28;20048;-67
2023/11/20 13:16:50;;;;;;;11.52;2.47;;;;;;;;;;5041245;28;20618;-67
2023/11/20 13:19:35;;;;;;;11.38;2.33;;;;;;;;;;5033540;28;20050;-67
2023/11/20 13:22:02;;;;;;;12.68;2.85;;;;;;;;;;5037371;28;20045;-67
2023/11/20 13:24:28;;;;;;;14.32;3.10;;;;;;;;;;5027064;28;20041;-68
2023/11/20 13:26:55;;;;;;;13.13;2.47;;;;;;;;;;5045789;28;20611;-68
2023/11/20 13:29:21;;;;;;;15.68;2.20;;;;;;;;;;5022309;28;20160;-67
2023/11/20 13:31:48;;;;;;;11.65;2.03;;;;;;;;;;5040272;28;20040;-67
2023/11/20 13:34:14;;;;;;;11.50;2.92;;;;;;;;;;5018960;28;20057;-67
2023/11/20 13:36:41;;;;;;;16.60;2.50;;;;;;;;;;5036355;28;20045;-67
2023/11/20 13:39:07;;;;;;;16.05;2.60;;;;;;;;;;5033779;28;20057;-67
2023/11/20 13:41:35;;;;;;;16.40;2.50;;;;;;;;;;5040775;28;20509;-67
2023/11/20 13:44:03;;;;;;;12.82;2.17;;;;;;;;;;5010811;28;20766;-67
2023/11/20 13:46:31;;;;;;;13.35;2.28;;;;;;;;;;5035597;28;20107;-68
2023/11/20 13:49:00;;;;;;;13.52;2.30;;;;;;;;;;5041108;28;20136;-67
2023/11/20 13:51:26;;;;;;;12.48;2.10;;;;;;;;;;5039295;28;20132;-67
2023/11/20 13:53:53;;;;;;;11.20;1.90;;;;;;;;;;5046648;28;20091;-67
2023/11/20 13:56:19;;;;;;;13.82;2.17;;;;;;;;;;5031866;28;20131;-67
2023/11/20 13:58:46;;;;;;;11.20;2.28;;;;;;;;;;5028087;28;20132;-68
2023/11/20 14:01:16;;;;;;;14.30;2.28;;;;;;;;;;5011630;28;20077;-67
2023/11/20 14:03:45;;;;;;;10.48;2.22;;;;;;;;;;5016381;28;20111;-67
2023/11/20 14:06:11;;;;;;;15.30;3.08;;;;;;;;;;5045823;28;20057;-67
2023/11/20 14:08:38;;;;;;;17.83;2.40;;;;;;;;;;5025795;28;20045;-67
2023/11/20 14:11:04;;;;;;;11.27;2.33;;;;;;;;;;5030633;28;20358;-67
2023/11/20 14:13:31;;;;;;;9.75;2.20;;;;;;;;;;5009427;28;20045;-67
2023/11/20 14:15:57;;;;;;;9.32;1.95;;;;;;;;;;5032815;28;20482;-67
2023/11/20 14:18:27;;;;;;;17.37;2.53;;;;;;;;;;5042353;28;20091;-66
2023/11/20 14:20:56;;;;;;;15.48;2.60;;;;;;;;;;5017658;28;20045;-66
2023/11/20 14:23:23;;;;;;;8.55;2.10;;;;;;;;;;5038502;28;20534;-67
2023/11/20 14:25:49;;;;;;;12.25;2.28;;;;;;;;;;5027166;28;20235;-67
2023/11/20 14:28:35;;;;;;;11.07;3.13;;;;;;;;;;5031808;28;20053;-67
2023/11/20 14:31:02;;;;;;;14.55;2.85;;;;;;;;;;5033291;28;20053;-67
2023/11/20 14:33:28;;;;;;;15.70;2.75;;;;;;;;;;5017116;28;20053;-67